sensor_id;sensor_type;location;lat;lon;timestamp;temperature;humidity
23532;DHT22;11943;52.270;20.978;2023-09-18T00:02:01;18.10;99.90
23532;DHT22;11943;52.270;20.978;2023-09-18T00:04:26;18.10;99.90
23532;DHT22;11943;52.270;20.978;2023-09-18T00:06:52;18.10;99.90
23532;DHT22;11943;52.270;20.978;2023-09-18T00:09:17;18.10;99.90
23532;DHT22;11943;52.270;20.978;2023-09-18T00:11:43;18.10;99.90
23532;DHT22;11943;52.270;20.978;2023-09-18T00:14:09;18.00;99.90
23532;DHT22;11943;52.270;20.978;2023-09-18T00:16:35;18.00;99.90
23532;DHT22;11943;52.270;20.978;2023-09-18T00:19:01;18.00;99.90
23532;DHT22;11943;52.270;20.978;2023-09-18T00:21:28;18.00;99.90
23532;DHT22;11943;52.270;20.978;2023-09-18T00:23:56;17.90;99.90
23532;DHT22;11943;52.270;20.978;2023-09-18T00:26:23;17.90;99.90
23532;DHT22;11943;52.270;20.978;2023-09-18T00:28:49;17.90;99.90
23532;DHT22;11943;52.270;20.978;2023-09-18T00:31:14;17.80;99.90
23532;DHT22;11943;52.270;20.978;2023-09-18T00:33:40;17.80;99.90
23532;DHT22;11943;52.270;20.978;2023-09-18T00:36:06;17.70;99.90
23532;DHT22;11943;52.270;20.978;2023-09-18T00:38:31;17.70;99.90
23532;DHT22;11943;52.270;20.978;2023-09-18T00:40:57;17.60;99.90
23532;DHT22;11943;52.270;20.978;2023-09-18T00:43:22;17.60;99.90
23532;DHT22;11943;52.270;20.978;2023-09-18T00:45:48;17.60;99.90
23532;DHT22;11943;52.270;20.978;2023-09-18T00:48:15;17.50;99.90
23532;DHT22;11943;52.270;20.978;2023-09-18T00:50:45;17.50;99.90
23532;DHT22;11943;52.270;20.978;2023-09-18T00:53:14;17.40;99.90
23532;DHT22;11943;52.270;20.978;2023-09-18T00:55:42;17.40;99.90
23532;DHT22;11943;52.270;20.978;2023-09-18T00:58:07;17.40;99.90
23532;DHT22;11943;52.270;20.978;2023-09-18T01:00:33;17.30;99.90
23532;DHT22;11943;52.270;20.978;2023-09-18T01:03:01;17.30;99.90
23532;DHT22;11943;52.270;20.978;2023-09-18T01:05:27;17.30;99.90
23532;DHT22;11943;52.270;20.978;2023-09-18T01:07:53;17.30;99.90
23532;DHT22;11943;52.270;20.978;2023-09-18T01:10:19;17.20;99.90
23532;DHT22;11943;52.270;20.978;2023-09-18T01:12:56;17.10;99.90
23532;DHT22;11943;52.270;20.978;2023-09-18T01:15:33;17.10;99.90
23532;DHT22;11943;52.270;20.978;2023-09-18T01:18:00;17.10;99.90
23532;DHT22;11943;52.270;20.978;2023-09-18T01:20:26;17.00;99.90
23532;DHT22;11943;52.270;20.978;2023-09-18T01:22:53;17.00;99.90
23532;DHT22;11943;52.270;20.978;2023-09-18T01:25:18;17.00;99.90
23532;DHT22;11943;52.270;20.978;2023-09-18T01:27:44;17.00;99.90
23532;DHT22;11943;52.270;20.978;2023-09-18T01:30:10;17.00;99.90
23532;DHT22;11943;52.270;20.978;2023-09-18T01:32:36;17.00;99.90
23532;DHT22;11943;52.270;20.978;2023-09-18T01:35:05;16.90;99.90
23532;DHT22;11943;52.270;20.978;2023-09-18T01:37:32;16.90;99.90
23532;DHT22;11943;52.270;20.978;2023-09-18T01:40:00;16.90;99.90
23532;DHT22;11943;52.270;20.978;2023-09-18T01:42:27;16.90;99.90
23532;DHT22;11943;52.270;20.978;2023-09-18T01:44:54;16.80;99.90
23532;DHT22;11943;52.270;20.978;2023-09-18T01:47:21;16.80;99.90
23532;DHT22;11943;52.270;20.978;2023-09-18T01:49:52;16.80;99.90
23532;DHT22;11943;52.270;20.978;2023-09-18T01:52:18;16.80;99.90
23532;DHT22;11943;52.270;20.978;2023-09-18T01:54:43;16.80;99.90
23532;DHT22;11943;52.270;20.978;2023-09-18T01:57:09;16.70;99.90
23532;DHT22;11943;52.270;20.978;2023-09-18T01:59:35;16.70;99.90
23532;DHT22;11943;52.270;20.978;2023-09-18T02:02:00;16.70;99.90
23532;DHT22;11943;52.270;20.978;2023-09-18T02:04:29;16.70;99.90
23532;DHT22;11943;52.270;20.978;2023-09-18T02:06:55;16.70;99.90
23532;DHT22;11943;52.270;20.978;2023-09-18T02:09:22;16.70;99.90
23532;DHT22;11943;52.270;20.978;2023-09-18T02:11:48;16.70;99.90
23532;DHT22;11943;52.270;20.978;2023-09-18T02:14:14;16.60;99.90
23532;DHT22;11943;52.270;20.978;2023-09-18T02:16:41;16.60;99.90
23532;DHT22;11943;52.270;20.978;2023-09-18T02:19:08;16.60;99.90
23532;DHT22;11943;52.270;20.978;2023-09-18T02:21:34;16.60;99.90
23532;DHT22;11943;52.270;20.978;2023-09-18T02:24:00;16.60;99.90
23532;DHT22;11943;52.270;20.978;2023-09-18T02:26:26;16.60;99.90
23532;DHT22;11943;52.270;20.978;2023-09-18T02:28:52;16.60;99.90
23532;DHT22;11943;52.270;20.978;2023-09-18T02:31:21;16.60;99.90
23532;DHT22;11943;52.270;20.978;2023-09-18T02:33:48;16.60;99.90
23532;DHT22;11943;52.270;20.978;2023-09-18T02:36:14;16.60;99.90
23532;DHT22;11943;52.270;20.978;2023-09-18T02:38:40;16.70;99.90
23532;DHT22;11943;52.270;20.978;2023-09-18T02:41:06;16.70;99.90
23532;DHT22;11943;52.270;20.978;2023-09-18T02:43:31;16.70;99.90
23532;DHT22;11943;52.270;20.978;2023-09-18T02:45:57;16.70;99.90
23532;DHT22;11943;52.270;20.978;2023-09-18T02:48:23;16.70;99.90
23532;DHT22;11943;52.270;20.978;2023-09-18T02:50:49;16.80;99.90
23532;DHT22;11943;52.270;20.978;2023-09-18T02:53:18;16.80;99.90
23532;DHT22;11943;52.270;20.978;2023-09-18T02:55:49;16.80;99.90
23532;DHT22;11943;52.270;20.978;2023-09-18T02:58:15;16.80;99.90
23532;DHT22;11943;52.270;20.978;2023-09-18T03:00:46;16.80;99.90
23532;DHT22;11943;52.270;20.978;2023-09-18T03:03:13;16.80;99.90
23532;DHT22;11943;52.270;20.978;2023-09-18T03:05:39;16.90;99.90
23532;DHT22;11943;52.270;20.978;2023-09-18T03:08:05;16.90;99.90
23532;DHT22;11943;52.270;20.978;2023-09-18T03:10:35;16.90;99.90
23532;DHT22;11943;52.270;20.978;2023-09-18T03:13:02;17.00;99.90
23532;DHT22;11943;52.270;20.978;2023-09-18T03:15:28;17.00;99.90
23532;DHT22;11943;52.270;20.978;2023-09-18T03:17:54;17.00;99.90
23532;DHT22;11943;52.270;20.978;2023-09-18T03:20:23;17.00;99.90
23532;DHT22;11943;52.270;20.978;2023-09-18T03:22:51;17.00;99.90
23532;DHT22;11943;52.270;20.978;2023-09-18T03:25:17;17.10;99.90
23532;DHT22;11943;52.270;20.978;2023-09-18T03:27:43;17.10;99.90
23532;DHT22;11943;52.270;20.978;2023-09-18T03:30:08;17.10;99.90
23532;DHT22;11943;52.270;20.978;2023-09-18T03:32:36;17.20;99.90
23532;DHT22;11943;52.270;20.978;2023-09-18T03:35:01;17.20;99.90
23532;DHT22;11943;52.270;20.978;2023-09-18T03:37:28;17.20;99.90
23532;DHT22;11943;52.270;20.978;2023-09-18T03:39:53;17.20;99.90
23532;DHT22;11943;52.270;20.978;2023-09-18T03:42:19;17.20;99.90
23532;DHT22;11943;52.270;20.978;2023-09-18T03:44:44;17.20;99.90
23532;DHT22;11943;52.270;20.978;2023-09-18T03:47:10;17.30;99.90
23532;DHT22;11943;52.270;20.978;2023-09-18T03:49:36;17.30;99.90
23532;DHT22;11943;52.270;20.978;2023-09-18T03:52:01;17.30;99.90
23532;DHT22;11943;52.270;20.978;2023-09-18T03:54:28;17.30;99.90
23532;DHT22;11943;52.270;20.978;2023-09-18T03:56:53;17.30;99.90
23532;DHT22;11943;52.270;20.978;2023-09-18T03:59:19;17.30;99.90
23532;DHT22;11943;52.270;20.978;2023-09-18T04:01:44;17.30;99.90
23532;DHT22;11943;52.270;20.978;2023-09-18T04:04:10;17.30;99.90
23532;DHT22;11943;52.270;20.978;2023-09-18T04:06:43;17.30;99.90
23532;DHT22;11943;52.270;20.978;2023-09-18T04:09:10;17.30;99.90
23532;DHT22;11943;52.270;20.978;2023-09-18T04:11:36;17.40;99.90
23532;DHT22;11943;52.270;20.978;2023-09-18T04:14:02;17.40;99.90
23532;DHT22;11943;52.270;20.978;2023-09-18T04:16:29;17.30;99.90
23532;DHT22;11943;52.270;20.978;2023-09-18T04:18:56;17.30;99.90
23532;DHT22;11943;52.270;20.978;2023-09-18T04:21:22;17.30;99.90
23532;DHT22;11943;52.270;20.978;2023-09-18T04:23:49;17.40;99.90
23532;DHT22;11943;52.270;20.978;2023-09-18T04:26:21;17.40;99.90
23532;DHT22;11943;52.270;20.978;2023-09-18T04:28:47;17.40;99.90
23532;DHT22;11943;52.270;20.978;2023-09-18T04:31:13;17.40;99.90
23532;DHT22;11943;52.270;20.978;2023-09-18T04:33:38;17.40;99.90
23532;DHT22;11943;52.270;20.978;2023-09-18T04:36:04;17.40;99.90
23532;DHT22;11943;52.270;20.978;2023-09-18T04:38:30;17.40;99.90
23532;DHT22;11943;52.270;20.978;2023-09-18T04:40:59;17.40;99.90
23532;DHT22;11943;52.270;20.978;2023-09-18T04:43:25;17.40;99.90
23532;DHT22;11943;52.270;20.978;2023-09-18T04:45:51;17.40;99.90
23532;DHT22;11943;52.270;20.978;2023-09-18T04:48:16;17.50;99.90
23532;DHT22;11943;52.270;20.978;2023-09-18T04:50:43;17.60;99.90
23532;DHT22;11943;52.270;20.978;2023-09-18T04:53:09;17.50;99.90
23532;DHT22;11943;52.270;20.978;2023-09-18T04:55:34;17.50;99.90
23532;DHT22;11943;52.270;20.978;2023-09-18T04:58:00;17.50;99.90
23532;DHT22;11943;52.270;20.978;2023-09-18T05:00:26;17.50;99.90
23532;DHT22;11943;52.270;20.978;2023-09-18T05:02:52;17.60;99.90
23532;DHT22;11943;52.270;20.978;2023-09-18T05:05:18;17.60;99.90
23532;DHT22;11943;52.270;20.978;2023-09-18T05:07:44;17.60;99.90
23532;DHT22;11943;52.270;20.978;2023-09-18T05:10:10;17.60;99.90
23532;DHT22;11943;52.270;20.978;2023-09-18T05:12:38;17.60;99.90
23532;DHT22;11943;52.270;20.978;2023-09-18T05:15:04;17.70;99.90
23532;DHT22;11943;52.270;20.978;2023-09-18T05:17:41;17.70;99.90
23532;DHT22;11943;52.270;20.978;2023-09-18T05:20:09;17.70;99.90
23532;DHT22;11943;52.270;20.978;2023-09-18T05:22:37;17.70;99.90
23532;DHT22;11943;52.270;20.978;2023-09-18T05:25:02;17.70;99.90
23532;DHT22;11943;52.270;20.978;2023-09-18T05:27:29;17.80;99.90
23532;DHT22;11943;52.270;20.978;2023-09-18T05:29:55;17.80;99.90
23532;DHT22;11943;52.270;20.978;2023-09-18T05:32:20;17.90;99.90
23532;DHT22;11943;52.270;20.978;2023-09-18T05:34:46;18.00;99.90
23532;DHT22;11943;52.270;20.978;2023-09-18T05:37:12;18.00;99.90
23532;DHT22;11943;52.270;20.978;2023-09-18T05:39:38;18.10;99.90
23532;DHT22;11943;52.270;20.978;2023-09-18T05:42:04;18.20;99.90
23532;DHT22;11943;52.270;20.978;2023-09-18T05:44:30;18.10;99.90
23532;DHT22;11943;52.270;20.978;2023-09-18T05:46:56;18.20;99.90
23532;DHT22;11943;52.270;20.978;2023-09-18T05:49:21;18.30;99.90
23532;DHT22;11943;52.270;20.978;2023-09-18T05:51:47;18.40;99.90
23532;DHT22;11943;52.270;20.978;2023-09-18T05:54:14;18.50;99.90
23532;DHT22;11943;52.270;20.978;2023-09-18T05:56:40;18.50;99.90
23532;DHT22;11943;52.270;20.978;2023-09-18T05:59:06;18.40;99.90
23532;DHT22;11943;52.270;20.978;2023-09-18T06:01:31;18.50;99.90
23532;DHT22;11943;52.270;20.978;2023-09-18T06:03:58;18.50;99.90
23532;DHT22;11943;52.270;20.978;2023-09-18T06:06:39;18.50;99.90
23532;DHT22;11943;52.270;20.978;2023-09-18T06:09:10;18.60;99.90
23532;DHT22;11943;52.270;20.978;2023-09-18T06:11:46;18.70;99.90
23532;DHT22;11943;52.270;20.978;2023-09-18T06:14:12;18.80;99.90
23532;DHT22;11943;52.270;20.978;2023-09-18T06:16:38;19.00;99.90
23532;DHT22;11943;52.270;20.978;2023-09-18T06:19:04;19.00;99.90
23532;DHT22;11943;52.270;20.978;2023-09-18T06:21:30;19.10;99.90
23532;DHT22;11943;52.270;20.978;2023-09-18T06:23:55;19.20;99.90
23532;DHT22;11943;52.270;20.978;2023-09-18T06:26:21;19.30;99.90
23532;DHT22;11943;52.270;20.978;2023-09-18T06:28:47;19.60;99.90
23532;DHT22;11943;52.270;20.978;2023-09-18T06:31:12;19.80;99.90
23532;DHT22;11943;52.270;20.978;2023-09-18T06:33:38;19.90;99.90
23532;DHT22;11943;52.270;20.978;2023-09-18T06:36:04;20.10;99.90
23532;DHT22;11943;52.270;20.978;2023-09-18T06:38:30;20.20;99.90
23532;DHT22;11943;52.270;20.978;2023-09-18T06:40:55;20.40;99.90
23532;DHT22;11943;52.270;20.978;2023-09-18T06:43:21;20.60;99.90
23532;DHT22;11943;52.270;20.978;2023-09-18T06:45:48;20.70;99.90
23532;DHT22;11943;52.270;20.978;2023-09-18T06:48:14;20.80;99.90
23532;DHT22;11943;52.270;20.978;2023-09-18T06:50:41;21.00;99.90
23532;DHT22;11943;52.270;20.978;2023-09-18T06:53:06;21.20;99.90
23532;DHT22;11943;52.270;20.978;2023-09-18T06:55:32;21.30;99.90
23532;DHT22;11943;52.270;20.978;2023-09-18T06:57:58;21.30;99.90
23532;DHT22;11943;52.270;20.978;2023-09-18T07:00:23;21.60;99.90
23532;DHT22;11943;52.270;20.978;2023-09-18T07:02:50;21.80;99.90
23532;DHT22;11943;52.270;20.978;2023-09-18T07:05:16;21.90;99.90
23532;DHT22;11943;52.270;20.978;2023-09-18T07:07:41;21.90;99.90
23532;DHT22;11943;52.270;20.978;2023-09-18T07:10:07;21.90;99.90
23532;DHT22;11943;52.270;20.978;2023-09-18T07:12:33;22.00;99.90
23532;DHT22;11943;52.270;20.978;2023-09-18T07:15:01;22.00;99.90
23532;DHT22;11943;52.270;20.978;2023-09-18T07:17:28;22.20;99.90
23532;DHT22;11943;52.270;20.978;2023-09-18T07:19:54;22.20;99.90
23532;DHT22;11943;52.270;20.978;2023-09-18T07:22:20;22.40;99.90
23532;DHT22;11943;52.270;20.978;2023-09-18T07:24:46;22.50;99.90
23532;DHT22;11943;52.270;20.978;2023-09-18T07:27:11;22.80;99.90
23532;DHT22;11943;52.270;20.978;2023-09-18T07:29:38;22.90;99.90
23532;DHT22;11943;52.270;20.978;2023-09-18T07:32:04;23.10;99.90
23532;DHT22;11943;52.270;20.978;2023-09-18T07:34:30;23.20;99.90
23532;DHT22;11943;52.270;20.978;2023-09-18T07:36:56;23.10;99.90
23532;DHT22;11943;52.270;20.978;2023-09-18T07:39:22;23.20;99.90
23532;DHT22;11943;52.270;20.978;2023-09-18T07:41:47;23.30;99.90
23532;DHT22;11943;52.270;20.978;2023-09-18T07:44:21;23.30;99.90
23532;DHT22;11943;52.270;20.978;2023-09-18T07:46:46;23.30;99.90
23532;DHT22;11943;52.270;20.978;2023-09-18T07:49:12;23.50;99.90
23532;DHT22;11943;52.270;20.978;2023-09-18T07:51:39;23.70;99.90
23532;DHT22;11943;52.270;20.978;2023-09-18T07:54:06;23.90;99.90
23532;DHT22;11943;52.270;20.978;2023-09-18T07:56:32;24.10;99.90
23532;DHT22;11943;52.270;20.978;2023-09-18T07:58:59;23.90;99.90
23532;DHT22;11943;52.270;20.978;2023-09-18T08:01:25;23.80;99.90
23532;DHT22;11943;52.270;20.978;2023-09-18T08:03:51;23.80;99.90
23532;DHT22;11943;52.270;20.978;2023-09-18T08:06:16;23.70;99.90
23532;DHT22;11943;52.270;20.978;2023-09-18T08:08:45;23.60;99.90
23532;DHT22;11943;52.270;20.978;2023-09-18T08:11:11;23.70;99.90
23532;DHT22;11943;52.270;20.978;2023-09-18T08:13:37;23.70;99.90
23532;DHT22;11943;52.270;20.978;2023-09-18T08:16:06;23.70;99.90
23532;DHT22;11943;52.270;20.978;2023-09-18T08:18:32;23.60;99.90
23532;DHT22;11943;52.270;20.978;2023-09-18T08:20:58;23.80;99.90
23532;DHT22;11943;52.270;20.978;2023-09-18T08:23:24;24.10;99.90
23532;DHT22;11943;52.270;20.978;2023-09-18T08:25:50;24.20;99.90
23532;DHT22;11943;52.270;20.978;2023-09-18T08:28:17;24.10;99.90
23532;DHT22;11943;52.270;20.978;2023-09-18T08:30:43;24.10;99.90
23532;DHT22;11943;52.270;20.978;2023-09-18T08:33:15;24.00;99.90
23532;DHT22;11943;52.270;20.978;2023-09-18T08:35:41;24.10;99.90
23532;DHT22;11943;52.270;20.978;2023-09-18T08:38:07;24.10;99.90
23532;DHT22;11943;52.270;20.978;2023-09-18T08:40:34;24.10;99.90
23532;DHT22;11943;52.270;20.978;2023-09-18T08:43:01;24.20;99.90
23532;DHT22;11943;52.270;20.978;2023-09-18T08:45:40;24.40;99.90
23532;DHT22;11943;52.270;20.978;2023-09-18T08:48:09;24.70;99.90
23532;DHT22;11943;52.270;20.978;2023-09-18T08:50:36;24.80;99.90
23532;DHT22;11943;52.270;20.978;2023-09-18T08:53:01;24.90;99.90
23532;DHT22;11943;52.270;20.978;2023-09-18T08:55:28;24.80;99.90
23532;DHT22;11943;52.270;20.978;2023-09-18T08:57:55;24.80;99.90
23532;DHT22;11943;52.270;20.978;2023-09-18T09:00:22;25.00;99.90
23532;DHT22;11943;52.270;20.978;2023-09-18T09:02:48;25.00;99.90
23532;DHT22;11943;52.270;20.978;2023-09-18T09:05:16;25.00;99.90
23532;DHT22;11943;52.270;20.978;2023-09-18T09:07:42;25.00;99.90
23532;DHT22;11943;52.270;20.978;2023-09-18T09:10:08;25.10;99.90
23532;DHT22;11943;52.270;20.978;2023-09-18T09:12:55;25.20;99.90
23532;DHT22;11943;52.270;20.978;2023-09-18T09:15:29;25.40;99.90
23532;DHT22;11943;52.270;20.978;2023-09-18T09:18:07;25.60;99.90
23532;DHT22;11943;52.270;20.978;2023-09-18T09:20:35;25.60;99.90
23532;DHT22;11943;52.270;20.978;2023-09-18T09:23:05;25.50;99.90
23532;DHT22;11943;52.270;20.978;2023-09-18T09:25:32;25.70;99.90
23532;DHT22;11943;52.270;20.978;2023-09-18T09:28:04;25.70;99.90
23532;DHT22;11943;52.270;20.978;2023-09-18T09:30:31;25.80;99.90
23532;DHT22;11943;52.270;20.978;2023-09-18T09:32:59;25.70;99.90
23532;DHT22;11943;52.270;20.978;2023-09-18T09:35:27;25.70;99.90
23532;DHT22;11943;52.270;20.978;2023-09-18T09:38:08;25.90;99.90
23532;DHT22;11943;52.270;20.978;2023-09-18T09:40:34;26.10;99.90
23532;DHT22;11943;52.270;20.978;2023-09-18T09:43:01;26.20;99.10
23532;DHT22;11943;52.270;20.978;2023-09-18T09:45:29;26.20;98.60
23532;DHT22;11943;52.270;20.978;2023-09-18T09:47:56;25.90;98.50
23532;DHT22;11943;52.270;20.978;2023-09-18T09:50:22;25.70;97.50
23532;DHT22;11943;52.270;20.978;2023-09-18T09:52:53;25.90;99.90
23532;DHT22;11943;52.270;20.978;2023-09-18T09:55:25;25.90;99.80
23532;DHT22;11943;52.270;20.978;2023-09-18T09:57:59;25.90;99.00
23532;DHT22;11943;52.270;20.978;2023-09-18T10:03:15;26.00;97.30
23532;DHT22;11943;52.270;20.978;2023-09-18T10:05:43;26.20;96.40
23532;DHT22;11943;52.270;20.978;2023-09-18T10:10:52;26.50;94.20
23532;DHT22;11943;52.270;20.978;2023-09-18T10:13:28;26.70;94.30
23532;DHT22;11943;52.270;20.978;2023-09-18T10:15:56;26.90;94.30
23532;DHT22;11943;52.270;20.978;2023-09-18T10:21:35;26.90;92.80
23532;DHT22;11943;52.270;20.978;2023-09-18T10:24:22;26.90;90.00
23532;DHT22;11943;52.270;20.978;2023-09-18T10:29:23;27.00;84.70
23532;DHT22;11943;52.270;20.978;2023-09-18T10:31:51;26.80;82.60
23532;DHT22;11943;52.270;20.978;2023-09-18T10:34:18;26.70;83.40
23532;DHT22;11943;52.270;20.978;2023-09-18T10:36:47;26.90;83.10
23532;DHT22;11943;52.270;20.978;2023-09-18T10:39:13;27.10;80.80
23532;DHT22;11943;52.270;20.978;2023-09-18T10:41:40;27.30;80.60
23532;DHT22;11943;52.270;20.978;2023-09-18T10:44:07;27.10;77.10
23532;DHT22;11943;52.270;20.978;2023-09-18T10:46:34;27.10;76.80
23532;DHT22;11943;52.270;20.978;2023-09-18T10:49:00;27.10;75.30
23532;DHT22;11943;52.270;20.978;2023-09-18T10:51:29;27.30;74.90
23532;DHT22;11943;52.270;20.978;2023-09-18T10:53:56;27.40;74.60
23532;DHT22;11943;52.270;20.978;2023-09-18T10:56:22;27.40;76.20
23532;DHT22;11943;52.270;20.978;2023-09-18T10:58:58;27.10;77.00
23532;DHT22;11943;52.270;20.978;2023-09-18T11:01:24;27.00;77.40
23532;DHT22;11943;52.270;20.978;2023-09-18T11:03:53;27.10;77.40
23532;DHT22;11943;52.270;20.978;2023-09-18T11:06:19;27.20;77.70
23532;DHT22;11943;52.270;20.978;2023-09-18T11:08:49;27.50;77.90
23532;DHT22;11943;52.270;20.978;2023-09-18T11:11:18;27.80;73.60
23532;DHT22;11943;52.270;20.978;2023-09-18T11:13:46;27.70;73.90
23532;DHT22;11943;52.270;20.978;2023-09-18T11:21:33;27.60;72.50
23532;DHT22;11943;52.270;20.978;2023-09-18T11:26:33;27.60;73.70
23532;DHT22;11943;52.270;20.978;2023-09-18T11:29:07;27.60;72.00
23532;DHT22;11943;52.270;20.978;2023-09-18T11:31:48;27.70;72.30
23532;DHT22;11943;52.270;20.978;2023-09-18T11:34:27;27.70;70.80
23532;DHT22;11943;52.270;20.978;2023-09-18T11:37:01;27.70;70.30
23532;DHT22;11943;52.270;20.978;2023-09-18T11:39:41;27.70;70.50
23532;DHT22;11943;52.270;20.978;2023-09-18T11:42:12;28.00;71.20
23532;DHT22;11943;52.270;20.978;2023-09-18T11:44:41;27.90;68.30
23532;DHT22;11943;52.270;20.978;2023-09-18T11:47:12;28.10;68.90
23532;DHT22;11943;52.270;20.978;2023-09-18T11:49:46;28.30;68.40
23532;DHT22;11943;52.270;20.978;2023-09-18T11:52:16;28.50;69.60
23532;DHT22;11943;52.270;20.978;2023-09-18T11:54:43;28.30;66.00
23532;DHT22;11943;52.270;20.978;2023-09-18T11:57:11;28.30;67.30
23532;DHT22;11943;52.270;20.978;2023-09-18T11:59:40;28.20;68.10
23532;DHT22;11943;52.270;20.978;2023-09-18T12:02:08;27.90;68.40
23532;DHT22;11943;52.270;20.978;2023-09-18T12:04:35;28.00;67.50
23532;DHT22;11943;52.270;20.978;2023-09-18T12:07:03;28.00;67.30
23532;DHT22;11943;52.270;20.978;2023-09-18T12:09:33;27.80;68.30
23532;DHT22;11943;52.270;20.978;2023-09-18T12:12:05;27.60;68.80
23532;DHT22;11943;52.270;20.978;2023-09-18T12:14:32;27.70;68.00
23532;DHT22;11943;52.270;20.978;2023-09-18T12:17:02;27.80;68.50
23532;DHT22;11943;52.270;20.978;2023-09-18T12:19:29;27.70;66.80
23532;DHT22;11943;52.270;20.978;2023-09-18T12:21:56;27.70;67.60
23532;DHT22;11943;52.270;20.978;2023-09-18T12:24:25;27.40;68.30
23532;DHT22;11943;52.270;20.978;2023-09-18T12:26:52;27.30;70.10
23532;DHT22;11943;52.270;20.978;2023-09-18T12:29:18;27.30;69.10
23532;DHT22;11943;52.270;20.978;2023-09-18T12:31:44;27.80;69.60
23532;DHT22;11943;52.270;20.978;2023-09-18T12:34:28;28.00;65.80
23532;DHT22;11943;52.270;20.978;2023-09-18T12:36:54;28.00;66.60
23532;DHT22;11943;52.270;20.978;2023-09-18T12:39:20;27.90;65.70
23532;DHT22;11943;52.270;20.978;2023-09-18T12:41:47;27.90;66.50
23532;DHT22;11943;52.270;20.978;2023-09-18T12:44:13;27.80;66.30
23532;DHT22;11943;52.270;20.978;2023-09-18T12:46:41;28.10;67.70
23532;DHT22;11943;52.270;20.978;2023-09-18T12:49:20;27.90;65.20
23532;DHT22;11943;52.270;20.978;2023-09-18T12:51:56;27.80;65.30
23532;DHT22;11943;52.270;20.978;2023-09-18T12:54:37;27.40;67.90
23532;DHT22;11943;52.270;20.978;2023-09-18T12:57:05;27.50;70.70
23532;DHT22;11943;52.270;20.978;2023-09-18T12:59:36;27.60;70.80
23532;DHT22;11943;52.270;20.978;2023-09-18T13:02:03;27.90;68.50
23532;DHT22;11943;52.270;20.978;2023-09-18T13:04:34;27.90;70.30
23532;DHT22;11943;52.270;20.978;2023-09-18T13:07:10;27.80;71.30
23532;DHT22;11943;52.270;20.978;2023-09-18T13:09:36;27.70;72.10
23532;DHT22;11943;52.270;20.978;2023-09-18T13:12:03;27.70;70.40
23532;DHT22;11943;52.270;20.978;2023-09-18T13:14:29;27.70;69.10
23532;DHT22;11943;52.270;20.978;2023-09-18T13:17:01;27.70;70.20
23532;DHT22;11943;52.270;20.978;2023-09-18T13:19:30;27.50;70.70
23532;DHT22;11943;52.270;20.978;2023-09-18T13:21:57;27.70;70.70
23532;DHT22;11943;52.270;20.978;2023-09-18T13:24:28;27.70;70.60
23532;DHT22;11943;52.270;20.978;2023-09-18T13:26:55;27.70;70.70
23532;DHT22;11943;52.270;20.978;2023-09-18T13:29:23;27.50;69.10
23532;DHT22;11943;52.270;20.978;2023-09-18T13:31:48;27.50;69.70
23532;DHT22;11943;52.270;20.978;2023-09-18T13:34:15;27.30;70.60
23532;DHT22;11943;52.270;20.978;2023-09-18T13:36:44;27.20;72.80
23532;DHT22;11943;52.270;20.978;2023-09-18T13:39:12;27.00;72.80
23532;DHT22;11943;52.270;20.978;2023-09-18T13:41:39;26.90;73.80
23532;DHT22;11943;52.270;20.978;2023-09-18T13:44:07;26.80;74.90
23532;DHT22;11943;52.270;20.978;2023-09-18T13:46:32;26.90;73.50
23532;DHT22;11943;52.270;20.978;2023-09-18T13:49:05;27.00;72.90
23532;DHT22;11943;52.270;20.978;2023-09-18T13:51:32;27.10;73.10
23532;DHT22;11943;52.270;20.978;2023-09-18T13:53:58;27.20;72.30
23532;DHT22;11943;52.270;20.978;2023-09-18T13:56:24;27.20;71.30
23532;DHT22;11943;52.270;20.978;2023-09-18T13:58:55;27.10;70.50
23532;DHT22;11943;52.270;20.978;2023-09-18T14:01:22;27.20;70.60
23532;DHT22;11943;52.270;20.978;2023-09-18T14:03:49;27.30;71.30
23532;DHT22;11943;52.270;20.978;2023-09-18T14:06:16;27.30;70.60
23532;DHT22;11943;52.270;20.978;2023-09-18T14:08:41;27.30;70.40
23532;DHT22;11943;52.270;20.978;2023-09-18T14:11:07;27.10;70.00
23532;DHT22;11943;52.270;20.978;2023-09-18T14:13:33;27.10;70.20
23532;DHT22;11943;52.270;20.978;2023-09-18T14:15:58;27.10;70.60
23532;DHT22;11943;52.270;20.978;2023-09-18T14:18:24;27.10;70.40
23532;DHT22;11943;52.270;20.978;2023-09-18T14:20:50;27.00;69.70
23532;DHT22;11943;52.270;20.978;2023-09-18T14:23:16;27.00;70.00
23532;DHT22;11943;52.270;20.978;2023-09-18T14:25:41;26.90;70.10
23532;DHT22;11943;52.270;20.978;2023-09-18T14:28:07;27.00;70.10
23532;DHT22;11943;52.270;20.978;2023-09-18T14:30:33;26.90;69.90
23532;DHT22;11943;52.270;20.978;2023-09-18T14:32:59;27.00;71.30
23532;DHT22;11943;52.270;20.978;2023-09-18T14:35:27;26.80;69.90
23532;DHT22;11943;52.270;20.978;2023-09-18T14:37:52;26.80;70.10
23532;DHT22;11943;52.270;20.978;2023-09-18T14:40:18;26.80;69.50
23532;DHT22;11943;52.270;20.978;2023-09-18T14:42:46;26.80;70.00
23532;DHT22;11943;52.270;20.978;2023-09-18T14:45:12;26.80;69.90
23532;DHT22;11943;52.270;20.978;2023-09-18T14:47:39;26.80;70.70
23532;DHT22;11943;52.270;20.978;2023-09-18T14:50:05;26.70;70.60
23532;DHT22;11943;52.270;20.978;2023-09-18T14:52:31;26.60;71.30
23532;DHT22;11943;52.270;20.978;2023-09-18T14:54:58;26.60;71.70
23532;DHT22;11943;52.270;20.978;2023-09-18T14:57:25;26.40;72.40
23532;DHT22;11943;52.270;20.978;2023-09-18T14:59:52;26.40;72.00
23532;DHT22;11943;52.270;20.978;2023-09-18T15:02:17;26.40;71.80
23532;DHT22;11943;52.270;20.978;2023-09-18T15:04:44;26.40;71.70
23532;DHT22;11943;52.270;20.978;2023-09-18T15:07:09;26.40;72.00
23532;DHT22;11943;52.270;20.978;2023-09-18T15:09:36;26.20;71.80
23532;DHT22;11943;52.270;20.978;2023-09-18T15:12:04;26.20;71.90
23532;DHT22;11943;52.270;20.978;2023-09-18T15:14:29;26.00;72.20
23532;DHT22;11943;52.270;20.978;2023-09-18T15:16:55;26.00;72.60
23532;DHT22;11943;52.270;20.978;2023-09-18T15:19:21;26.00;72.60
23532;DHT22;11943;52.270;20.978;2023-09-18T15:21:47;26.00;72.50
23532;DHT22;11943;52.270;20.978;2023-09-18T15:24:13;26.00;72.80
23532;DHT22;11943;52.270;20.978;2023-09-18T15:26:39;25.90;73.50
23532;DHT22;11943;52.270;20.978;2023-09-18T15:29:04;25.90;73.90
23532;DHT22;11943;52.270;20.978;2023-09-18T15:31:30;25.90;73.60
23532;DHT22;11943;52.270;20.978;2023-09-18T15:33:56;25.80;74.70
23532;DHT22;11943;52.270;20.978;2023-09-18T15:36:21;25.70;75.00